Time;durP1;ratioP1;P1;durP2;ratioP2;P2;SDS_P1;SDS_P2;PMS_P1;PMS_P2;Temp;Humidity;BMP_temperature;BMP_pressure;BME280_temperature;BME280_humidity;BME280_pressure;Samples;Min_cycle;Max_cycle;Signal;HPM_P1;HPM_P2
2021/05/09 00:01:53;;;;;;;3.90;2.20;;;20.20;88.50;;;;;;4954068;29;20501;-63
2021/05/09 00:04:20;;;;;;;3.10;2.08;;;20.20;88.70;;;;;;4954286;29;20118;-54
2021/05/09 00:06:48;;;;;;;2.85;2.28;;;20.20;88.50;;;;;;4954321;29;20055;-52
2021/05/09 00:09:15;;;;;;;2.20;2.00;;;20.20;88.80;;;;;;4953895;29;20102;-53
2021/05/09 00:11:43;;;;;;;2.53;2.08;;;20.20;88.80;;;;;;4953703;29;20032;-56
2021/05/09 00:14:10;;;;;;;3.05;2.10;;;20.20;88.70;;;;;;4953856;29;20110;-56
2021/05/09 00:16:38;;;;;;;3.88;2.22;;;20.20;88.50;;;;;;4954030;29;20226;-58
2021/05/09 00:19:06;;;;;;;2.90;2.05;;;20.20;88.60;;;;;;4953592;29;20035;-56
2021/05/09 00:21:33;;;;;;;3.05;2.00;;;20.20;88.50;;;;;;4954645;29;20373;-59
2021/05/09 00:24:01;;;;;;;1.92;1.80;;;20.20;88.60;;;;;;4954022;29;20063;-59
2021/05/09 00:26:29;;;;;;;4.30;1.90;;;20.20;88.80;;;;;;4953966;29;20033;-61
2021/05/09 00:28:56;;;;;;;2.50;1.98;;;20.20;88.50;;;;;;4954308;29;20031;-59
2021/05/09 00:31:23;;;;;;;6.20;2.20;;;20.20;88.60;;;;;;4953709;29;20110;-59
2021/05/09 00:33:50;;;;;;;3.30;2.15;;;20.20;88.30;;;;;;4953789;29;20204;-62
2021/05/09 00:36:18;;;;;;;2.58;2.10;;;20.20;88.70;;;;;;4953550;29;20040;-59
2021/05/09 00:38:46;;;;;;;3.28;1.80;;;20.20;88.10;;;;;;4952444;29;20029;-57
2021/05/09 00:41:13;;;;;;;3.22;2.10;;;20.20;88.30;;;;;;4953568;29;20111;-58
2021/05/09 00:43:40;;;;;;;2.92;2.10;;;20.20;88.10;;;;;;4953856;29;20110;-55
2021/05/09 00:46:07;;;;;;;2.60;1.98;;;20.30;87.70;;;;;;4953960;29;20648;-58
2021/05/09 00:48:36;;;;;;;2.88;1.77;;;20.30;87.90;;;;;;4953872;29;20107;-57
2021/05/09 00:51:03;;;;;;;1.95;1.63;;;20.30;88.00;;;;;;4953520;29;20038;-58
2021/05/09 00:53:31;;;;;;;2.47;2.00;;;20.30;87.70;;;;;;4953495;29;20423;-61
2021/05/09 00:56:01;;;;;;;3.28;2.33;;;20.30;88.10;;;;;;4954456;28;20497;-62
2021/05/09 00:58:30;;;;;;;4.10;2.17;;;20.30;88.30;;;;;;4957276;29;20046;-58
2021/05/09 01:00:57;;;;;;;3.10;1.92;;;20.30;86.60;;;;;;4956983;29;20023;-60
2021/05/09 01:03:29;;;;;;;2.40;1.95;;;20.30;87.10;;;;;;4956771;28;20098;-53
2021/05/09 01:05:59;;;;;;;4.20;2.03;;;20.40;87.90;;;;;;4957627;29;20042;-55
2021/05/09 01:08:28;;;;;;;3.00;2.10;;;20.40;86.40;;;;;;4957109;29;20035;-60
2021/05/09 01:10:56;;;;;;;2.53;2.25;;;20.40;87.00;;;;;;4955275;28;20035;-56
2021/05/09 01:13:23;;;;;;;3.92;1.83;;;20.40;87.30;;;;;;4939224;29;20023;-55
2021/05/09 01:15:51;;;;;;;2.90;2.30;;;20.40;86.60;;;;;;4956620;29;20035;-54
2021/05/09 01:18:18;;;;;;;3.17;2.22;;;20.40;87.10;;;;;;4956824;29;20027;-57
2021/05/09 01:20:46;;;;;;;3.80;2.22;;;20.40;87.40;;;;;;4957039;29;20027;-51
2021/05/09 01:23:14;;;;;;;2.72;1.83;;;20.40;86.60;;;;;;4939204;29;20027;-54
2021/05/09 01:25:42;;;;;;;1.70;1.60;;;20.40;86.00;;;;;;4956810;29;20113;-54
2021/05/09 01:28:09;;;;;;;2.30;1.85;;;20.50;87.40;;;;;;4956435;29;20098;-57
2021/05/09 01:30:37;;;;;;;4.75;2.30;;;20.50;86.70;;;;;;4955471;29;20213;-54
2021/05/09 01:33:05;;;;;;;4.55;2.45;;;20.50;85.60;;;;;;4938376;29;20078;-56
2021/05/09 01:35:33;;;;;;;2.92;2.22;;;20.50;85.70;;;;;;4951344;28;20075;-64
2021/05/09 01:38:01;;;;;;;3.40;1.88;;;20.50;86.30;;;;;;4957141;28;20030;-51
2021/05/09 01:40:29;;;;;;;3.20;1.88;;;20.50;87.60;;;;;;4953771;28;20075;-56
2021/05/09 01:42:56;;;;;;;3.92;2.10;;;20.50;87.10;;;;;;4958843;28;20030;-58
2021/05/09 01:45:24;;;;;;;3.70;3.30;;;20.50;85.60;;;;;;4954813;28;20065;-52
2021/05/09 01:47:51;;;;;;;6.05;5.22;;;20.60;86.70;;;;;;4965066;28;20033;-52
2021/05/09 01:50:20;;;;;;;8.05;5.60;;;20.60;86.60;;;;;;4958638;28;20066;-54
2021/05/09 01:52:47;;;;;;;6.40;5.18;;;20.60;85.50;;;;;;4955014;28;20022;-55
2021/05/09 01:55:21;;;;;;;6.68;5.32;;;20.60;86.30;;;;;;4955097;28;20042;-52
2021/05/09 01:57:49;;;;;;;7.75;4.35;;;20.60;86.80;;;;;;4957186;28;20059;-57
2021/05/09 02:00:21;;;;;;;6.28;5.65;;;20.70;85.80;;;;;;4956778;28;20057;-51
2021/05/09 02:02:50;;;;;;;7.05;6.45;;;20.70;85.90;;;;;;4954866;28;20051;-52
2021/05/09 02:05:18;;;;;;;7.32;6.63;;;20.70;86.90;;;;;;4955541;28;20027;-56
2021/05/09 02:07:45;;;;;;;7.32;6.40;;;20.80;85.30;;;;;;4957003;28;20034;-56
2021/05/09 02:10:13;;;;;;;7.43;6.72;;;20.80;86.20;;;;;;4957679;28;20049;-56
2021/05/09 02:12:41;;;;;;;6.97;6.28;;;20.80;85.30;;;;;;4953470;29;20032;-48
2021/05/09 02:15:09;;;;;;;9.18;7.35;;;20.80;84.40;;;;;;4958275;28;20039;-58
2021/05/09 02:17:37;;;;;;;8.60;7.78;;;20.80;84.20;;;;;;4956969;28;20185;-51
2021/05/09 02:20:06;;;;;;;11.63;7.85;;;20.90;83.90;;;;;;4960442;28;20037;-56
2021/05/09 02:22:34;;;;;;;7.75;7.03;;;20.90;84.30;;;;;;4951391;28;20027;-56
2021/05/09 02:25:01;;;;;;;10.65;9.68;;;20.90;84.50;;;;;;4949459;28;20316;-55
2021/05/09 02:27:29;;;;;;;11.90;10.80;;;21.00;85.60;;;;;;4953030;29;20059;-59
2021/05/09 02:29:57;;;;;;;10.43;9.52;;;21.00;84.90;;;;;;4953008;28;20082;-58
2021/05/09 02:32:25;;;;;;;11.25;10.25;;;21.00;83.70;;;;;;4955572;28;20132;-60
2021/05/09 02:34:52;;;;;;;12.25;11.15;;;21.00;82.90;;;;;;4955164;29;20444;-57
2021/05/09 02:37:19;;;;;;;15.38;13.77;;;21.10;84.30;;;;;;4954095;28;20478;-59
2021/05/09 02:39:47;;;;;;;13.45;12.07;;;21.00;84.60;;;;;;4955000;29;20034;-58
2021/05/09 02:42:14;;;;;;;12.57;11.40;;;21.00;83.20;;;;;;4955485;29;20023;-56
2021/05/09 02:44:42;;;;;;;10.73;9.70;;;21.10;84.40;;;;;;4955443;29;20106;-60
2021/05/09 02:47:10;;;;;;;14.18;12.77;;;21.10;83.10;;;;;;4936837;29;20042;-58
2021/05/09 02:49:38;;;;;;;15.30;13.85;;;21.00;86.00;;;;;;4955142;29;20046;-60
2021/05/09 02:52:05;;;;;;;13.80;12.50;;;21.00;86.40;;;;;;4955212;29;20038;-58
2021/05/09 02:54:33;;;;;;;14.52;13.02;;;21.00;86.30;;;;;;4954886;29;20042;-46
2021/05/09 02:57:00;;;;;;;10.52;9.50;;;21.10;85.70;;;;;;4954347;29;20102;-50
2021/05/09 02:59:27;;;;;;;10.95;8.40;;;21.10;83.40;;;;;;4954359;29;20485;-52
2021/05/09 03:01:55;;;;;;;24.80;5.88;;;21.10;81.90;;;;;;4954318;29;20442;-55
2021/05/09 03:04:22;;;;;;;12.45;11.23;;;21.10;78.30;;;;;;4943943;28;20115;-48
2021/05/09 03:06:49;;;;;;;11.07;7.32;;;21.20;84.30;;;;;;4949514;29;20086;-45
2021/05/09 03:09:17;;;;;;;9.10;7.28;;;21.20;80.80;;;;;;4954821;28;20046;-51
2021/05/09 03:11:44;;;;;;;10.32;4.47;;;21.20;81.80;;;;;;4955802;28;20055;-43
2021/05/09 03:14:11;;;;;;;9.85;5.20;;;21.20;76.50;;;;;;4940593;28;20027;-49
2021/05/09 03:16:39;;;;;;;10.60;6.70;;;21.10;76.60;;;;;;4936634;29;20082;-45
2021/05/09 03:19:06;;;;;;;9.68;8.65;;;21.20;78.70;;;;;;4955939;28;20497;-45
2021/05/09 03:21:34;;;;;;;11.38;9.93;;;21.20;77.70;;;;;;4962910;28;20042;-44
2021/05/09 03:24:01;;;;;;;13.10;11.00;;;21.30;81.60;;;;;;4954501;28;20035;-56
2021/05/09 03:26:29;;;;;;;11.43;10.02;;;21.30;81.10;;;;;;4954509;29;20019;-48
2021/05/09 03:28:56;;;;;;;11.15;7.85;;;21.30;80.30;;;;;;4954438;29;20410;-53
2021/05/09 03:31:23;;;;;;;10.77;9.68;;;21.30;79.70;;;;;;4937012;29;20029;-42
2021/05/09 03:33:51;;;;;;;14.80;6.50;;;21.30;79.40;;;;;;4954456;29;20031;-46
2021/05/09 03:36:18;;;;;;;8.50;4.75;;;21.20;76.50;;;;;;4953992;29;20027;-51
2021/05/09 03:38:46;;;;;;;11.32;7.43;;;21.30;74.20;;;;;;4954247;29;20031;-53
2021/05/09 03:41:13;;;;;;;10.75;6.85;;;21.30;77.00;;;;;;4936537;29;20027;-48
2021/05/09 03:43:41;;;;;;;11.00;9.35;;;21.30;75.70;;;;;;4954036;29;20034;-48
2021/05/09 03:46:08;;;;;;;8.95;5.10;;;21.30;78.80;;;;;;4936768;29;20035;-50
2021/05/09 03:48:36;;;;;;;16.48;10.75;;;21.30;75.90;;;;;;4954418;29;20131;-51
2021/05/09 03:51:04;;;;;;;15.02;8.05;;;21.40;78.60;;;;;;4937048;29;20031;-50
2021/05/09 03:53:31;;;;;;;12.32;9.93;;;21.40;76.60;;;;;;4954333;29;20023;-48
2021/05/09 03:55:59;;;;;;;9.27;7.20;;;21.40;79.70;;;;;;4953818;29;20043;-47
2021/05/09 03:58:26;;;;;;;9.90;7.93;;;21.40;78.60;;;;;;4953891;29;20035;-42
2021/05/09 04:00:54;;;;;;;10.95;5.55;;;21.40;78.00;;;;;;4954454;29;20019;-47
2021/05/09 04:03:31;;;;;;;8.52;6.13;;;21.40;74.50;;;;;;4953458;29;20071;-55
2021/05/09 04:05:59;;;;;;;7.15;4.65;;;21.50;77.00;;;;;;4953967;29;20023;-52
2021/05/09 04:08:28;;;;;;;10.05;4.50;;;21.40;75.00;;;;;;4953873;29;20082;-46
2021/05/09 04:10:57;;;;;;;8.20;5.00;;;21.40;74.80;;;;;;4954052;29;20019;-55
2021/05/09 04:13:25;;;;;;;12.05;5.82;;;21.40;76.30;;;;;;4954013;29;20366;-51
2021/05/09 04:15:53;;;;;;;10.00;5.20;;;21.50;78.40;;;;;;4953968;29;20209;-54
2021/05/09 04:18:20;;;;;;;6.40;5.35;;;21.50;78.40;;;;;;4954070;29;20110;-48
2021/05/09 04:20:48;;;;;;;8.68;5.38;;;21.50;78.40;;;;;;4953988;28;20035;-49
2021/05/09 04:23:16;;;;;;;15.90;5.07;;;21.50;78.30;;;;;;4953704;29;20038;-46
2021/05/09 04:25:49;;;;;;;11.95;5.60;;;21.60;77.30;;;;;;4953898;29;20062;-50
2021/05/09 04:28:17;;;;;;;7.15;5.68;;;21.60;78.50;;;;;;4954110;29;20031;-47
2021/05/09 04:30:44;;;;;;;11.80;5.93;;;21.60;79.50;;;;;;4954530;28;20023;-45
2021/05/09 04:33:12;;;;;;;13.43;6.25;;;21.60;79.90;;;;;;4957795;29;20050;-44
2021/05/09 04:35:43;;;;;;;32.60;7.90;;;21.70;80.20;;;;;;4956398;28;20481;-52
2021/05/09 04:38:11;;;;;;;12.93;5.63;;;21.70;83.60;;;;;;4957688;29;20114;-54
2021/05/09 04:40:39;;;;;;;6.82;4.60;;;21.70;82.50;;;;;;4956588;29;20154;-55
2021/05/09 04:43:11;;;;;;;14.40;5.18;;;21.70;80.40;;;;;;4956954;29;20110;-52
2021/05/09 04:45:39;;;;;;;18.95;5.85;;;21.70;80.30;;;;;;4957528;29;20034;-48
2021/05/09 04:48:07;;;;;;;9.48;5.40;;;21.70;82.30;;;;;;4957692;29;20032;-49
2021/05/09 04:50:34;;;;;;;13.85;5.22;;;21.70;82.40;;;;;;4957520;29;20030;-48
2021/05/09 04:53:02;;;;;;;13.02;5.20;;;21.70;80.90;;;;;;4956961;29;20442;-52
2021/05/09 04:55:29;;;;;;;15.43;5.93;;;21.70;81.70;;;;;;4956913;29;20119;-52
2021/05/09 04:57:57;;;;;;;19.33;5.50;;;21.70;81.70;;;;;;4957005;29;20099;-59
2021/05/09 05:00:24;;;;;;;20.52;5.78;;;21.70;83.70;;;;;;4955517;29;20027;-59
2021/05/09 05:02:52;;;;;;;15.90;5.32;;;21.80;83.60;;;;;;4956882;28;20048;-55
2021/05/09 05:05:19;;;;;;;25.83;5.93;;;21.80;82.50;;;;;;4956439;29;20082;-63
2021/05/09 05:07:46;;;;;;;29.27;6.60;;;21.90;82.90;;;;;;4956211;29;20054;-57
2021/05/09 05:10:14;;;;;;;16.45;5.45;;;21.90;82.80;;;;;;4956042;29;20030;-57
2021/05/09 05:12:41;;;;;;;15.27;4.70;;;21.90;83.50;;;;;;4956614;29;20031;-55
2021/05/09 05:15:09;;;;;;;19.75;5.75;;;21.90;84.00;;;;;;4956287;29;20043;-59
2021/05/09 05:17:36;;;;;;;15.50;5.00;;;22.00;85.40;;;;;;4956737;29;20095;-59
2021/05/09 05:20:04;;;;;;;17.85;4.90;;;22.00;85.80;;;;;;4956756;29;20070;-61
2021/05/09 05:22:31;;;;;;;25.77;5.15;;;22.00;83.70;;;;;;4939367;29;20027;-61
2021/05/09 05:24:59;;;;;;;25.50;4.05;;;22.00;85.40;;;;;;4956111;29;20031;-60
2021/05/09 05:27:26;;;;;;;14.95;4.60;;;22.10;85.40;;;;;;4938940;29;20034;-61
2021/05/09 05:29:53;;;;;;;7.72;4.03;;;22.00;84.70;;;;;;4956866;29;20028;-57
2021/05/09 05:32:21;;;;;;;15.10;4.10;;;22.10;84.60;;;;;;4956590;29;20027;-60
2021/05/09 05:34:48;;;;;;;25.77;4.80;;;22.10;84.30;;;;;;4956486;29;20413;-61
2021/05/09 05:37:16;;;;;;;14.73;4.65;;;22.00;84.50;;;;;;4956121;29;20085;-62
2021/05/09 05:39:43;;;;;;;16.35;4.65;;;22.00;84.90;;;;;;4956234;29;20079;-58
2021/05/09 05:42:11;;;;;;;10.95;3.38;;;22.00;85.50;;;;;;4955742;28;20030;-60
2021/05/09 05:44:39;;;;;;;14.77;3.33;;;22.00;85.60;;;;;;4955025;29;20031;-62
2021/05/09 05:47:06;;;;;;;10.85;3.53;;;22.00;85.30;;;;;;4956300;29;20035;-60
2021/05/09 05:49:33;;;;;;;8.82;3.95;;;22.00;86.20;;;;;;4956054;29;20392;-62
2021/05/09 05:52:01;;;;;;;10.02;3.40;;;22.00;86.20;;;;;;4956561;29;20086;-62
2021/05/09 05:54:29;;;;;;;27.10;4.43;;;22.00;86.10;;;;;;4955843;29;20375;-59
2021/05/09 05:56:56;;;;;;;11.85;3.85;;;22.00;85.40;;;;;;4939153;29;20027;-64
2021/05/09 05:59:23;;;;;;;19.45;4.28;;;22.00;85.40;;;;;;4955862;29;20066;-59
2021/05/09 06:01:51;;;;;;;38.08;4.57;;;22.00;83.40;;;;;;4955615;28;20054;-62
2021/05/09 06:04:18;;;;;;;29.67;3.97;;;22.10;84.70;;;;;;4956029;29;20473;-60
2021/05/09 06:06:45;;;;;;;14.30;4.00;;;22.00;82.90;;;;;;4953970;29;20039;-58
2021/05/09 06:09:13;;;;;;;12.90;3.40;;;22.00;83.10;;;;;;4955202;29;20489;-57
2021/05/09 06:11:40;;;;;;;8.32;2.92;;;21.90;82.50;;;;;;4955846;29;20112;-53
2021/05/09 06:14:07;;;;;;;13.65;3.33;;;21.90;83.50;;;;;;4956296;29;20062;-48
2021/05/09 06:16:35;;;;;;;13.05;3.22;;;21.80;83.80;;;;;;4956162;29;20035;-53
2021/05/09 06:19:03;;;;;;;9.80;3.15;;;21.80;84.00;;;;;;4956112;29;20027;-51
2021/05/09 06:21:30;;;;;;;10.93;3.15;;;21.80;83.60;;;;;;4956107;29;20046;-54
2021/05/09 06:23:57;;;;;;;8.55;2.47;;;21.80;83.70;;;;;;4952894;28;20031;-51
2021/05/09 06:26:25;;;;;;;15.95;3.50;;;21.70;84.00;;;;;;4956273;29;20031;-55
2021/05/09 06:28:53;;;;;;;4.82;2.72;;;21.70;84.10;;;;;;4955792;29;20054;-56
2021/05/09 06:31:21;;;;;;;7.88;3.00;;;21.70;84.20;;;;;;4955714;29;20058;-48
2021/05/09 06:33:48;;;;;;;12.90;3.20;;;21.60;84.00;;;;;;4955807;29;20023;-54
2021/05/09 06:36:15;;;;;;;7.32;2.92;;;21.60;84.40;;;;;;4955328;29;20082;-53
2021/05/09 06:38:43;;;;;;;9.27;3.42;;;21.60;84.40;;;;;;4955244;29;20036;-54
2021/05/09 06:41:10;;;;;;;8.63;3.03;;;21.60;84.80;;;;;;4955614;29;20031;-45
2021/05/09 06:43:38;;;;;;;5.90;2.92;;;21.50;84.70;;;;;;4955713;29;20027;-57
2021/05/09 06:46:07;;;;;;;12.70;3.10;;;21.50;85.10;;;;;;4955396;29;20031;-50
2021/05/09 06:48:35;;;;;;;8.32;2.95;;;21.50;84.70;;;;;;4955441;29;20482;-52
2021/05/09 06:51:03;;;;;;;13.43;3.42;;;21.50;84.90;;;;;;4955148;29;20034;-56
2021/05/09 06:53:31;;;;;;;7.88;2.60;;;21.50;84.90;;;;;;4954658;28;20024;-52
2021/05/09 06:55:59;;;;;;;5.78;2.60;;;21.40;84.70;;;;;;4938168;29;20373;-49
2021/05/09 06:58:26;;;;;;;4.55;2.97;;;21.40;84.60;;;;;;4955489;29;20106;-46
2021/05/09 07:00:53;;;;;;;8.98;3.03;;;21.40;84.70;;;;;;4955346;29;20035;-56
2021/05/09 07:03:21;;;;;;;9.23;3.28;;;21.40;85.10;;;;;;4954802;28;20047;-56
2021/05/09 07:05:48;;;;;;;9.13;2.63;;;21.40;85.40;;;;;;4946314;28;20489;-54
2021/05/09 07:08:16;;;;;;;5.53;3.10;;;21.30;85.30;;;;;;4953404;28;20450;-51
2021/05/09 07:10:43;;;;;;;5.43;2.30;;;21.30;85.50;;;;;;4934231;29;20043;-49
2021/05/09 07:13:10;;;;;;;6.68;2.83;;;21.30;85.40;;;;;;4956954;28;20510;-52
2021/05/09 07:15:40;;;;;;;10.60;2.90;;;21.30;85.40;;;;;;4954843;28;20047;-55
2021/05/09 07:18:11;;;;;;;4.85;2.65;;;21.30;85.40;;;;;;4955560;28;20034;-54
2021/05/09 07:20:44;;;;;;;5.70;2.78;;;21.30;85.40;;;;;;4948184;28;20063;-46
2021/05/09 07:23:13;;;;;;;8.20;2.75;;;21.30;85.20;;;;;;4951540;28;20031;-53
2021/05/09 07:25:41;;;;;;;9.55;2.80;;;21.30;85.40;;;;;;4956579;28;20027;-47
2021/05/09 07:28:13;;;;;;;7.05;2.95;;;21.30;85.20;;;;;;4949150;29;20030;-51
2021/05/09 07:30:43;;;;;;;5.50;2.90;;;21.30;85.40;;;;;;4945503;29;20030;-49
2021/05/09 07:33:14;;;;;;;9.15;3.72;;;21.30;85.40;;;;;;4948121;29;20035;-56
2021/05/09 07:35:45;;;;;;;4.72;3.08;;;21.20;85.10;;;;;;4949486;29;20041;-50
2021/05/09 07:38:14;;;;;;;6.80;2.88;;;21.30;85.60;;;;;;4948616;29;20493;-49
2021/05/09 07:40:42;;;;;;;6.35;2.90;;;21.20;85.40;;;;;;4945631;29;20102;-50
2021/05/09 07:43:11;;;;;;;4.32;2.83;;;21.20;85.60;;;;;;4948481;29;20031;-53
2021/05/09 07:45:38;;;;;;;4.30;2.70;;;21.20;85.70;;;;;;4949227;28;20027;-52
2021/05/09 07:48:08;;;;;;;7.68;2.50;;;21.20;85.60;;;;;;4954858;28;20127;-52
2021/05/09 07:50:36;;;;;;;6.47;3.03;;;21.20;85.70;;;;;;4958216;28;20027;-46
2021/05/09 07:53:04;;;;;;;8.65;2.60;;;21.20;85.60;;;;;;4952113;28;20083;-51
2021/05/09 07:55:32;;;;;;;5.50;2.45;;;21.20;85.60;;;;;;4959305;28;20596;-51
2021/05/09 07:57:59;;;;;;;6.13;2.85;;;21.20;85.40;;;;;;4959675;28;20532;-51
2021/05/09 08:00:27;;;;;;;5.53;3.38;;;21.20;85.40;;;;;;4952194;28;20090;-50
2021/05/09 08:02:54;;;;;;;6.10;2.95;;;21.20;85.80;;;;;;4955675;28;20490;-52
2021/05/09 08:05:23;;;;;;;5.10;2.70;;;21.20;85.80;;;;;;4953599;28;20745;-53
2021/05/09 08:07:56;;;;;;;5.25;2.72;;;21.20;85.90;;;;;;4951875;28;20500;-54
2021/05/09 08:10:27;;;;;;;5.22;2.85;;;21.20;86.00;;;;;;4955277;28;20027;-50
2021/05/09 08:12:54;;;;;;;6.78;2.63;;;21.20;85.70;;;;;;4957636;28;20019;-50
2021/05/09 08:15:22;;;;;;;4.03;2.72;;;21.10;85.80;;;;;;4954104;28;20106;-48
2021/05/09 08:17:50;;;;;;;8.32;2.72;;;21.10;85.80;;;;;;4953210;28;20039;-53
2021/05/09 08:20:18;;;;;;;4.50;2.90;;;21.10;85.90;;;;;;4948461;28;20024;-52
2021/05/09 08:22:47;;;;;;;3.95;2.70;;;21.10;86.20;;;;;;4958503;28;20031;-58
2021/05/09 08:25:16;;;;;;;6.13;2.60;;;21.10;86.10;;;;;;4951438;28;20121;-56
2021/05/09 08:27:45;;;;;;;8.00;2.50;;;21.10;86.30;;;;;;4949555;29;20055;-52
2021/05/09 08:30:15;;;;;;;5.85;2.47;;;21.10;86.40;;;;;;4946283;28;20090;-55
2021/05/09 08:32:42;;;;;;;4.43;2.60;;;21.10;86.10;;;;;;4955834;28;20034;-52
2021/05/09 08:35:12;;;;;;;4.15;2.80;;;21.10;86.40;;;;;;4954340;28;20074;-57
2021/05/09 08:37:42;;;;;;;3.30;2.38;;;21.10;86.30;;;;;;4949991;29;20031;-51
2021/05/09 08:40:15;;;;;;;3.45;2.50;;;21.00;86.50;;;;;;4950719;28;20532;-52
2021/05/09 08:42:43;;;;;;;6.90;2.58;;;21.00;86.50;;;;;;4952641;28;20024;-54
2021/05/09 08:45:11;;;;;;;5.35;2.97;;;21.00;86.00;;;;;;4957144;28;20051;-51
2021/05/09 08:47:43;;;;;;;3.85;2.58;;;21.00;86.70;;;;;;4949025;28;20091;-52
2021/05/09 08:50:22;;;;;;;6.05;2.58;;;21.00;86.80;;;;;;4948128;28;20055;-55
2021/05/09 08:52:51;;;;;;;3.20;2.17;;;21.00;86.80;;;;;;4945079;28;20596;-53
2021/05/09 08:55:26;;;;;;;7.40;2.80;;;21.00;86.60;;;;;;4950861;28;20066;-54
2021/05/09 08:57:57;;;;;;;5.32;2.50;;;20.90;86.60;;;;;;4949060;28;20082;-49
2021/05/09 09:00:26;;;;;;;4.97;2.77;;;20.90;86.70;;;;;;4946723;28;20118;-49
2021/05/09 09:02:53;;;;;;;4.68;2.53;;;20.90;86.60;;;;;;4951136;28;20051;-56
2021/05/09 09:05:47;;;;;;;4.15;2.67;;;20.90;86.80;;;;;;4946741;29;20079;-49
2021/05/09 09:08:15;;;;;;;4.13;2.25;;;20.90;86.70;;;;;;4950732;28;20106;-57
2021/05/09 09:10:46;;;;;;;3.53;2.20;;;20.90;86.80;;;;;;4949878;28;20038;-52
2021/05/09 09:13:21;;;;;;;4.50;2.50;;;20.90;86.90;;;;;;4958914;28;20020;-55
2021/05/09 09:16:07;;;;;;;5.32;2.20;;;20.90;86.80;;;;;;4957021;28;20533;-50
2021/05/09 09:18:39;;;;;;;4.28;2.40;;;20.90;86.90;;;;;;4957107;28;20516;-48
2021/05/09 09:21:27;;;;;;;3.75;2.53;;;20.90;86.70;;;;;;4954804;28;20031;-48
2021/05/09 09:23:55;;;;;;;6.38;3.10;;;20.90;87.00;;;;;;4960894;28;20058;-52
2021/05/09 09:26:36;;;;;;;3.97;2.42;;;20.90;86.80;;;;;;4961610;28;20118;-53
2021/05/09 09:29:44;;;;;;;6.03;2.55;;;20.90;86.90;;;;;;4954183;28;20094;-54
2021/05/09 09:32:13;;;;;;;4.38;2.25;;;20.90;86.90;;;;;;4950828;28;20152;-53
2021/05/09 09:34:49;;;;;;;4.70;2.72;;;20.90;86.90;;;;;;4945148;29;20561;-50
2021/05/09 09:37:17;;;;;;;5.45;2.58;;;20.90;86.80;;;;;;4934451;29;20031;-51
2021/05/09 09:39:51;;;;;;;7.00;2.42;;;20.90;87.10;;;;;;4949812;29;20370;-57
2021/05/09 09:42:54;;;;;;;3.28;2.33;;;20.90;87.10;;;;;;4954082;28;20046;-50
2021/05/09 09:45:28;;;;;;;3.90;2.95;;;20.90;87.10;;;;;;4887108;29;20037;-54
2021/05/09 09:48:03;;;;;;;5.28;2.72;;;20.90;87.20;;;;;;4945330;29;20107;-51
2021/05/09 09:50:41;;;;;;;3.20;2.33;;;20.90;87.10;;;;;;4955603;28;20025;-51
2021/05/09 09:53:42;;;;;;;4.30;2.95;;;20.80;87.10;;;;;;4957130;28;20035;-57
2021/05/09 09:56:24;;;;;;;3.45;2.10;;;20.80;87.10;;;;;;4946010;28;20134;-54
2021/05/09 09:59:02;;;;;;;3.92;2.30;;;20.80;86.90;;;;;;4955505;28;20111;-59
2021/05/09 10:01:37;;;;;;;5.95;2.40;;;20.80;87.10;;;;;;4959623;28;20031;-54
2021/05/09 10:04:09;;;;;;;2.70;2.38;;;20.90;87.20;;;;;;4958871;28;20406;-52
2021/05/09 10:06:38;;;;;;;4.32;1.98;;;20.80;86.90;;;;;;4960242;28;20029;-53
2021/05/09 10:09:07;;;;;;;4.45;2.20;;;20.80;87.30;;;;;;4956477;28;20050;-54
2021/05/09 10:11:36;;;;;;;3.22;2.42;;;20.80;87.30;;;;;;4957437;28;20026;-48
2021/05/09 10:14:05;;;;;;;3.85;2.40;;;20.80;87.30;;;;;;4956754;28;20023;-51
2021/05/09 10:16:37;;;;;;;4.65;2.40;;;20.80;87.00;;;;;;4956351;28;20027;-56
2021/05/09 10:19:11;;;;;;;6.22;2.67;;;20.80;87.40;;;;;;4954485;28;20051;-54
2021/05/09 10:21:42;;;;;;;3.20;2.80;;;20.70;87.60;;;;;;4955642;28;20102;-49
2021/05/09 10:24:17;;;;;;;7.15;2.17;;;20.70;87.40;;;;;;4956795;28;20031;-52
2021/05/09 10:27:12;;;;;;;2.28;2.05;;;20.80;87.30;;;;;;4957562;28;20054;-49
2021/05/09 10:29:40;;;;;;;5.45;2.63;;;20.70;87.30;;;;;;4952175;28;20031;-55
2021/05/09 10:32:13;;;;;;;3.83;2.25;;;20.80;87.20;;;;;;4958164;28;20353;-46
2021/05/09 10:35:00;;;;;;;2.90;2.15;;;20.70;87.30;;;;;;4949572;28;20043;-50
2021/05/09 10:37:38;;;;;;;3.60;2.42;;;20.70;87.40;;;;;;4955314;28;20068;-50
2021/05/09 10:40:34;;;;;;;3.65;2.33;;;20.70;87.20;;;;;;4955563;28;20105;-47
2021/05/09 10:43:05;;;;;;;4.20;2.40;;;20.70;87.30;;;;;;4954867;28;20484;-52
2021/05/09 10:45:36;;;;;;;3.53;2.42;;;20.70;87.00;;;;;;4936814;29;20139;-52
2021/05/09 10:48:16;;;;;;;3.10;2.60;;;20.70;87.10;;;;;;4963148;28;20030;-55
2021/05/09 10:50:44;;;;;;;4.25;2.60;;;20.80;87.50;;;;;;4956003;28;20454;-51
2021/05/09 10:53:31;;;;;;;2.92;2.33;;;20.70;87.40;;;;;;4962982;28;20031;-57
2021/05/09 10:56:01;;;;;;;3.85;3.08;;;20.70;87.40;;;;;;4954547;28;20130;-49
2021/05/09 10:58:51;;;;;;;3.85;2.20;;;20.70;87.20;;;;;;4957320;28;20038;-53
2021/05/09 11:01:26;;;;;;;3.03;2.13;;;20.70;87.40;;;;;;4952310;28;20508;-55
2021/05/09 11:04:00;;;;;;;3.80;2.63;;;20.70;87.20;;;;;;4951187;28;20066;-45
2021/05/09 11:06:28;;;;;;;3.45;2.53;;;20.70;88.00;;;;;;4956590;28;20153;-45
2021/05/09 11:09:07;;;;;;;2.95;2.08;;;20.70;87.40;;;;;;4951204;29;20027;-46
2021/05/09 11:11:35;;;;;;;3.30;2.30;;;20.70;87.40;;;;;;4953192;28;20031;-50
2021/05/09 11:14:08;;;;;;;4.15;2.17;;;20.70;87.30;;;;;;4962695;28;20054;-49
2021/05/09 11:16:40;;;;;;;2.83;2.35;;;20.70;87.40;;;;;;4961709;28;20046;-50
2021/05/09 11:19:07;;;;;;;3.97;2.25;;;20.70;87.50;;;;;;4953241;28;20132;-48
2021/05/09 11:21:37;;;;;;;2.38;2.17;;;20.70;88.00;;;;;;4950325;28;20031;-49
2021/05/09 11:24:07;;;;;;;6.78;2.35;;;20.70;87.50;;;;;;4956213;28;20055;-52
2021/05/09 11:26:46;;;;;;;3.17;2.00;;;20.70;87.50;;;;;;4960278;28;20039;-49
2021/05/09 11:29:18;;;;;;;3.55;2.38;;;20.70;87.50;;;;;;4957126;28;20113;-53
2021/05/09 11:31:44;;;;;;;;;;;20.60;87.60;;;;;;4955435;28;20034;-48
2021/05/09 11:34:13;;;;;;;5.28;2.58;;;20.70;87.20;;;;;;4959395;28;19913;-52
2021/05/09 11:36:41;;;;;;;3.00;2.45;;;20.60;87.20;;;;;;4956053;28;20043;-53
2021/05/09 11:39:16;;;;;;;2.38;2.17;;;20.60;87.40;;;;;;4948548;28;20877;-47
2021/05/09 11:42:05;;;;;;;2.42;2.05;;;20.60;86.80;;;;;;4955743;28;20054;-50
2021/05/09 11:44:36;;;;;;;3.05;2.45;;;20.60;87.40;;;;;;4951574;29;20126;-51
2021/05/09 11:47:09;;;;;;;3.22;2.35;;;20.60;87.60;;;;;;4957817;28;20046;-55
2021/05/09 11:49:37;;;;;;;3.08;2.35;;;20.60;87.50;;;;;;4950484;28;20125;-53
2021/05/09 11:52:06;;;;;;;3.67;2.33;;;20.60;87.40;;;;;;4959252;28;20027;-52
2021/05/09 11:54:37;;;;;;;3.28;2.40;;;20.60;87.60;;;;;;4955820;28;20050;-55
2021/05/09 11:57:07;;;;;;;2.67;2.13;;;20.60;87.30;;;;;;4957387;28;20031;-47
2021/05/09 11:59:36;;;;;;;2.97;2.20;;;20.60;87.50;;;;;;4954032;28;20110;-50
2021/05/09 12:02:20;;;;;;;2.55;2.05;;;20.60;87.50;;;;;;4953471;28;20738;-58
2021/05/09 12:04:57;;;;;;;3.15;2.30;;;20.60;87.60;;;;;;4956084;28;20035;-55
2021/05/09 12:07:50;;;;;;;3.67;2.40;;;20.60;87.60;;;;;;4953298;28;20057;-52
2021/05/09 12:10:27;;;;;;;3.03;2.10;;;20.60;87.60;;;;;;4948825;28;20031;-48
2021/05/09 12:13:06;;;;;;;3.22;2.15;;;20.50;87.50;;;;;;4956938;28;20038;-45
2021/05/09 12:15:43;;;;;;;3.10;2.58;;;20.60;87.50;;;;;;4941874;28;20094;-56
2021/05/09 12:18:12;;;;;;;4.25;2.17;;;20.50;87.70;;;;;;4962205;28;20094;-48
2021/05/09 12:20:42;;;;;;;2.22;2.03;;;20.50;87.70;;;;;;4951615;28;20031;-52
2021/05/09 12:23:18;;;;;;;3.45;2.00;;;20.50;87.80;;;;;;4954568;28;20045;-51
2021/05/09 12:25:50;;;;;;;3.53;2.45;;;20.50;87.60;;;;;;4950871;28;20501;-53
2021/05/09 12:28:19;;;;;;;3.78;2.08;;;20.50;87.60;;;;;;4960633;28;20390;-50
2021/05/09 12:30:51;;;;;;;3.65;2.38;;;20.50;87.70;;;;;;4947284;28;20544;-49
2021/05/09 12:33:32;;;;;;;4.05;2.33;;;20.50;87.30;;;;;;4957953;28;20027;-49
2021/05/09 12:36:10;;;;;;;2.15;1.85;;;20.50;87.50;;;;;;4952392;28;20039;-52
2021/05/09 12:38:37;;;;;;;3.28;2.15;;;20.40;87.50;;;;;;4962015;28;20035;-52
2021/05/09 12:41:17;;;;;;;3.78;2.45;;;20.40;87.60;;;;;;4952020;28;20416;-51
2021/05/09 12:43:53;;;;;;;3.85;2.38;;;20.40;87.60;;;;;;4954361;28;20744;-52
2021/05/09 12:46:47;;;;;;;3.75;2.17;;;20.40;87.50;;;;;;4962863;28;20023;-54
2021/05/09 12:49:18;;;;;;;2.78;2.30;;;20.40;87.70;;;;;;4956823;28;20027;-50
2021/05/09 12:51:49;;;;;;;6.38;2.55;;;20.40;87.60;;;;;;4950790;28;20119;-47
2021/05/09 12:54:53;;;;;;;2.67;2.20;;;20.40;87.60;;;;;;4960927;28;20077;-56
2021/05/09 12:57:22;;;;;;;3.88;2.92;;;20.40;87.50;;;;;;4958372;28;20257;-51
2021/05/09 12:59:57;;;;;;;3.45;2.17;;;20.40;87.70;;;;;;4956593;28;20028;-57